Time;durP1;ratioP1;P1;durP2;ratioP2;P2;SDS_P1;SDS_P2;PMS_P1;PMS_P2;Temp;Humidity;BMP_temperature;BMP_pressure;BME280_temperature;BME280_humidity;BME280_pressure;Samples;Min_cycle;Max_cycle;Signal;HPM_P1;HPM_P2
2022/05/28 00:00:24;;;;;;;2.85;1.90;;;;;;;13.02;75.83;98502.34;1772954;80;21516;-72
2022/05/28 00:02:51;;;;;;;1.57;1.47;;;;;;;13.01;75.86;98504.19;1760884;80;21005;-74
2022/05/28 00:05:17;;;;;;;2.00;1.80;;;;;;;13.01;75.91;98496.17;1759844;80;21847;-72
2022/05/28 00:07:43;;;;;;;1.80;1.70;;;;;;;13.00;75.84;98485.20;1770815;80;20883;-72
2022/05/28 00:10:12;;;;;;;2.10;1.98;;;;;;;13.00;75.80;98492.39;1765082;80;21393;-71
2022/05/28 00:12:40;;;;;;;1.75;1.55;;;;;;;12.98;75.77;98492.58;1759563;80;20958;-71
2022/05/28 00:15:09;;;;;;;2.20;2.00;;;;;;;12.97;75.81;98490.96;1757256;80;21017;-72
2022/05/28 00:17:36;;;;;;;1.87;1.55;;;;;;;12.96;75.75;98489.81;1761131;80;21498;-72
2022/05/28 00:20:06;;;;;;;1.82;1.60;;;;;;;12.93;75.73;98487.59;1757100;80;20966;-72
2022/05/28 00:22:38;;;;;;;1.87;1.77;;;;;;;12.90;75.68;98490.67;1758270;80;20995;-72
2022/05/28 00:25:06;;;;;;;2.00;1.90;;;;;;;12.89;75.62;98489.84;1757299;80;20997;-71
2022/05/28 00:27:33;;;;;;;6.00;1.95;;;;;;;12.91;75.65;98486.95;1757316;80;20954;-71
2022/05/28 00:29:59;;;;;;;3.87;2.17;;;;;;;12.92;75.53;98488.61;1757449;80;21134;-71
2022/05/28 00:32:26;;;;;;;3.27;1.92;;;;;;;12.92;75.40;98491.28;1769176;78;20894;-71
2022/05/28 00:34:52;;;;;;;6.05;1.98;;;;;;;12.90;75.27;98496.02;1763503;79;20943;-72
2022/05/28 00:37:18;;;;;;;2.20;1.60;;;;;;;12.91;75.23;98490.96;1757428;80;21536;-73
2022/05/28 00:39:45;;;;;;;2.52;1.80;;;;;;;12.90;75.13;98490.67;1757313;80;20848;-72
2022/05/28 00:42:11;;;;;;;1.60;1.30;;;;;;;12.91;75.01;98486.45;1764705;80;21272;-70
2022/05/28 00:44:38;;;;;;;2.55;1.75;;;;;;;12.94;74.84;98489.22;1757385;80;20879;-73
2022/05/28 00:47:05;;;;;;;2.47;1.57;;;;;;;12.95;74.66;98488.20;1757242;80;20973;-71
2022/05/28 00:49:32;;;;;;;3.05;1.47;;;;;;;12.96;74.35;98477.80;1757247;80;21018;-72
2022/05/28 00:52:02;;;;;;;1.60;1.20;;;;;;;12.94;74.12;98475.87;1771443;80;20927;-72
2022/05/28 00:54:33;;;;;;;2.05;1.40;;;;;;;12.92;73.91;98482.77;1787150;80;21118;-72
2022/05/28 00:57:02;;;;;;;1.52;1.25;;;;;;;12.89;73.72;98479.68;1786945;80;20907;-71
2022/05/28 00:59:29;;;;;;;1.55;1.40;;;;;;;12.86;73.58;98480.09;1785156;79;20965;-72
2022/05/28 01:02:00;;;;;;;1.70;1.30;;;;;;;12.82;73.45;98487.72;1751086;80;21424;-71
2022/05/28 01:04:41;;;;;;;1.45;1.30;;;;;;;12.80;73.42;98494.29;1757455;80;21409;-72
2022/05/28 01:07:49;;;;;;;1.40;1.30;;;;;;;12.79;73.36;98494.80;1757900;80;21147;-72
2022/05/28 01:10:41;;;;;;;1.30;1.20;;;;;;;12.77;73.22;98496.03;1782060;80;20959;-71
2022/05/28 01:13:25;;;;;;;1.10;0.93;;;;;;;12.74;73.25;98487.11;1764572;80;21420;-72
2022/05/28 01:16:19;;;;;;;1.35;1.12;;;;;;;12.71;73.13;98496.86;1753224;81;21082;-72
2022/05/28 01:19:09;;;;;;;2.87;1.65;;;;;;;12.66;73.19;98501.99;1750101;81;20860;-70
2022/05/28 01:21:58;;;;;;;1.62;1.50;;;;;;;12.61;73.41;98507.95;1748266;81;21197;-73
2022/05/28 01:24:48;;;;;;;1.20;1.10;;;;;;;12.61;73.58;98513.80;1745098;81;20963;-70
2022/05/28 01:27:17;;;;;;;1.55;0.90;;;;;;;12.59;73.75;98515.86;1738966;80;21014;-72
2022/05/28 01:29:50;;;;;;;2.67;1.45;;;;;;;12.60;73.83;98512.14;1753646;81;20892;-71
2022/05/28 01:32:18;;;;;;;1.50;1.40;;;;;;;12.57;73.91;98507.22;1743850;81;20872;-72
2022/05/28 01:34:44;;;;;;;1.30;1.20;;;;;;;12.58;74.12;98512.88;1743773;81;21845;-71
2022/05/28 01:37:12;;;;;;;1.85;1.55;;;;;;;12.57;74.25;98505.38;1743996;81;20924;-72
2022/05/28 01:39:40;;;;;;;2.55;1.60;;;;;;;12.57;74.37;98508.55;1746447;81;20872;-71
2022/05/28 01:42:07;;;;;;;1.50;1.40;;;;;;;12.54;74.40;98507.66;1751254;81;20995;-73
2022/05/28 01:44:34;;;;;;;1.75;1.40;;;;;;;12.54;74.46;98510.33;1743791;81;20931;-71
2022/05/28 01:47:00;;;;;;;2.30;2.10;;;;;;;12.55;74.58;98506.61;1743677;81;21906;-72
2022/05/28 01:49:27;;;;;;;3.08;1.82;;;;;;;12.55;74.71;98506.10;1747821;81;20920;-73
2022/05/28 01:51:56;;;;;;;2.33;2.12;;;;;;;12.54;74.81;98502.32;1743788;81;20903;-70
2022/05/28 01:54:26;;;;;;;2.50;2.15;;;;;;;12.50;74.97;98497.90;1743856;81;20947;-71
2022/05/28 01:56:54;;;;;;;1.98;1.87;;;;;;;12.53;75.01;98496.66;1739898;81;21509;-70
2022/05/28 01:59:31;;;;;;;3.30;1.70;;;;;;;12.53;75.09;98494.00;1755277;79;21194;-70
2022/05/28 02:01:59;;;;;;;2.10;1.82;;;;;;;12.57;75.12;98494.70;1743679;81;20983;-71
2022/05/28 02:04:25;;;;;;;2.85;1.77;;;;;;;12.60;75.18;98489.47;1751569;81;20944;-71
2022/05/28 02:06:52;;;;;;;1.70;1.60;;;;;;;12.62;75.10;98476.77;1743831;81;20990;-71
2022/05/28 02:09:24;;;;;;;1.60;1.50;;;;;;;12.66;75.04;98488.14;1754126;81;21042;-70
2022/05/28 02:12:28;;;;;;;1.67;1.57;;;;;;;12.68;75.09;98489.26;1747947;81;21794;-71
2022/05/28 02:15:38;;;;;;;2.80;2.33;;;;;;;12.69;75.07;98495.74;1776128;80;20907;-71
2022/05/28 02:18:29;;;;;;;1.65;1.50;;;;;;;12.71;74.98;98495.52;1775061;80;20931;-70
2022/05/28 02:21:10;;;;;;;2.60;1.60;;;;;;;12.70;75.06;98499.20;1759745;80;20962;-69
2022/05/28 02:23:57;;;;;;;2.58;1.82;;;;;;;12.70;75.15;98497.88;1759698;80;20875;-71
2022/05/28 02:26:44;;;;;;;2.58;2.33;;;;;;;12.69;75.20;98501.58;1769976;80;21149;-71
2022/05/28 02:29:12;;;;;;;1.98;1.85;;;;;;;12.66;75.22;98505.48;1766850;79;21081;-72
2022/05/28 02:31:43;;;;;;;3.45;1.90;;;;;;;12.66;75.34;98510.83;1761087;80;21428;-72
2022/05/28 02:34:11;;;;;;;2.45;2.25;;;;;;;12.65;75.46;98509.68;1761950;80;20867;-72
2022/05/28 02:36:38;;;;;;;3.15;1.95;;;;;;;12.63;75.54;98517.91;1759729;80;21405;-72
2022/05/28 02:39:04;;;;;;;2.72;1.98;;;;;;;12.63;75.56;98515.74;1760711;80;21859;-71
2022/05/28 02:41:31;;;;;;;2.00;1.80;;;;;;;12.60;75.62;98516.15;1789357;79;20930;-71
2022/05/28 02:43:58;;;;;;;3.17;1.80;;;;;;;12.58;75.69;98519.03;1782333;80;20997;-72
2022/05/28 02:46:25;;;;;;;2.47;2.12;;;;;;;12.54;75.83;98516.45;1759868;80;20962;-72
2022/05/28 02:48:51;;;;;;;2.20;2.00;;;;;;;12.51;76.00;98522.73;1759789;80;21519;-71
2022/05/28 02:51:21;;;;;;;3.37;2.08;;;;;;;12.51;76.17;98528.07;1771551;78;21179;-72
2022/05/28 02:53:50;;;;;;;2.47;2.15;;;;;;;12.55;76.31;98525.28;1771621;80;20970;-71
2022/05/28 02:56:18;;;;;;;2.40;2.25;;;;;;;12.60;76.40;98528.98;1759834;80;20993;-72
2022/05/28 02:58:46;;;;;;;4.33;2.72;;;;;;;12.64;76.45;98532.07;1759680;80;20907;-71
2022/05/28 03:01:27;;;;;;;2.70;1.82;;;;;;;12.66;76.47;98536.69;1763942;80;20994;-72
2022/05/28 03:03:55;;;;;;;1.95;1.82;;;;;;;12.68;76.48;98533.28;1764937;79;21225;-72
2022/05/28 03:06:22;;;;;;;2.20;2.00;;;;;;;12.74;76.49;98528.47;1759557;80;21511;-71
2022/05/28 03:08:48;;;;;;;2.30;2.10;;;;;;;12.76;76.40;98536.58;1759753;80;20887;-71
2022/05/28 03:11:15;;;;;;;3.47;1.60;;;;;;;12.81;76.30;98539.95;1765694;80;21484;-72
2022/05/28 03:13:41;;;;;;;2.30;2.10;;;;;;;12.83;76.07;98544.56;1765045;79;21025;-71
2022/05/28 03:16:08;;;;;;;2.30;1.92;;;;;;;12.85;76.06;98537.98;1757472;80;21156;-72
2022/05/28 03:18:34;;;;;;;1.80;1.70;;;;;;;12.92;75.89;98543.33;1757180;80;20919;-72
2022/05/28 03:21:01;;;;;;;2.15;1.95;;;;;;;13.00;75.72;98540.45;1757295;80;21512;-72
2022/05/28 03:23:27;;;;;;;3.02;2.00;;;;;;;13.08;75.48;98542.11;1761770;80;20871;-74
2022/05/28 03:25:54;;;;;;;1.85;1.72;;;;;;;13.22;75.15;98543.19;1757428;80;20983;-72
2022/05/28 03:28:20;;;;;;;2.35;1.82;;;;;;;13.38;74.90;98537.39;1757285;80;21225;-72
2022/05/28 03:30:47;;;;;;;3.40;1.65;;;;;;;13.52;74.05;98545.68;1757310;80;21028;-71
2022/05/28 03:33:15;;;;;;;2.35;1.82;;;;;;;13.66;73.38;98545.63;1764657;80;21059;-71
2022/05/28 03:35:41;;;;;;;2.45;1.70;;;;;;;13.75;72.47;98545.67;1757257;80;20923;-72
2022/05/28 03:38:08;;;;;;;2.02;1.60;;;;;;;13.86;71.65;98550.36;1757367;80;20938;-70
2022/05/28 03:40:34;;;;;;;2.75;2.00;;;;;;;13.90;71.04;98551.56;1757206;80;21103;-70
2022/05/28 03:43:02;;;;;;;2.20;2.00;;;;;;;13.91;70.52;98543.86;1758084;80;20974;-72
2022/05/28 03:45:29;;;;;;;2.08;1.87;;;;;;;13.88;70.10;98550.45;1757308;80;21598;-72
2022/05/28 03:47:56;;;;;;;2.40;1.98;;;;;;;13.84;69.88;98549.77;1768705;80;21568;-72
2022/05/28 03:50:23;;;;;;;2.92;1.80;;;;;;;13.87;69.94;98554.69;1757412;80;20982;-71
2022/05/28 03:52:49;;;;;;;2.22;1.80;;;;;;;13.99;69.61;98544.43;1761082;80;22054;-72
2022/05/28 03:55:16;;;;;;;2.30;1.70;;;;;;;14.26;69.89;98533.57;1763082;79;20910;-72
2022/05/28 03:57:45;;;;;;;2.67;2.00;;;;;;;14.68;69.42;98544.38;1757241;80;20927;-72
2022/05/28 04:00:14;;;;;;;2.37;1.67;;;;;;;15.18;68.24;98541.64;1758204;80;20998;-70
2022/05/28 04:02:42;;;;;;;1.92;1.77;;;;;;;15.75;67.18;98537.19;1758192;80;21045;-70
2022/05/28 04:05:08;;;;;;;3.08;2.00;;;;;;;16.36;65.36;98545.02;1759257;80;21702;-71
2022/05/28 04:07:36;;;;;;;4.55;1.85;;;;;;;16.83;62.53;98543.78;1757162;80;21465;-73
2022/05/28 04:10:04;;;;;;;2.12;1.80;;;;;;;17.18;60.88;98545.41;1757298;80;20887;-70
2022/05/28 04:12:32;;;;;;;2.02;1.50;;;;;;;17.58;59.40;98545.51;1757534;80;20943;-71
2022/05/28 04:15:00;;;;;;;3.10;2.50;;;;;;;18.02;58.08;98548.52;1769844;80;20864;-72
2022/05/28 04:17:27;;;;;;;4.80;2.77;;;;;;;18.41;56.46;98544.94;1743567;81;21716;-71
2022/05/28 04:19:53;;;;;;;5.53;3.72;;;;;;;18.68;55.27;98547.86;1743589;81;21521;-71
2022/05/28 04:22:20;;;;;;;7.15;4.55;;;;;;;18.97;54.16;98548.06;1743764;81;20891;-72
2022/05/28 04:24:46;;;;;;;6.10;3.80;;;;;;;19.15;53.15;98545.63;1752153;79;20986;-71
2022/05/28 04:27:14;;;;;;;5.08;4.35;;;;;;;19.31;52.04;98550.18;1743827;81;20987;-71
2022/05/28 04:29:40;;;;;;;6.35;3.65;;;;;;;19.50;51.25;98545.61;1743714;81;21968;-72
2022/05/28 04:32:08;;;;;;;4.70;4.20;;;;;;;19.69;50.95;98552.34;1744027;81;20872;-73
2022/05/28 04:34:35;;;;;;;3.98;3.55;;;;;;;20.01;49.99;98547.06;1753055;81;21025;-72
2022/05/28 04:37:03;;;;;;;5.10;3.52;;;;;;;20.07;48.70;98541.19;1752927;81;20923;-71
2022/05/28 04:39:30;;;;;;;5.08;3.25;;;;;;;20.05;48.35;98542.77;1743686;81;20915;-71
2022/05/28 04:41:56;;;;;;;4.08;3.22;;;;;;;20.16;48.69;98543.70;1743866;81;21241;-72
2022/05/28 04:44:22;;;;;;;5.17;3.85;;;;;;;20.43;48.24;98536.45;1747881;81;20978;-71
2022/05/28 04:46:49;;;;;;;3.92;3.40;;;;;;;20.84;47.84;98539.77;1751234;81;21409;-70
2022/05/28 04:49:15;;;;;;;3.42;2.80;;;;;;;21.31;46.93;98537.68;1743612;81;21474;-70
2022/05/28 04:51:42;;;;;;;3.58;2.30;;;;;;;22.31;44.50;98540.55;1743612;81;20962;-73
2022/05/28 04:54:08;;;;;;;2.83;2.30;;;;;;;22.31;44.50;98540.55;1743972;81;21027;-72
2022/05/28 04:56:36;;;;;;;3.58;2.45;;;;;;;22.70;42.87;98537.10;1743674;81;21430;-72
2022/05/28 04:59:02;;;;;;;2.42;1.65;;;;;;;22.97;42.25;98546.29;1743401;81;20967;-70
2022/05/28 05:01:29;;;;;;;2.33;1.95;;;;;;;23.19;41.42;98541.39;1750836;81;20876;-71
2022/05/28 05:03:55;;;;;;;2.85;1.50;;;;;;;23.33;40.96;98543.79;1764277;81;20998;-72
2022/05/28 05:06:22;;;;;;;3.87;2.05;;;;;;;23.55;40.26;98542.68;1751227;81;21216;-72
2022/05/28 05:08:49;;;;;;;2.83;1.62;;;;;;;23.72;39.26;98546.72;1759685;79;21441;-71
2022/05/28 05:11:17;;;;;;;2.33;2.02;;;;;;;23.82;38.86;98543.95;1743741;81;21433;-68
2022/05/28 05:13:44;;;;;;;3.37;2.45;;;;;;;23.97;38.47;98545.78;1743496;81;20931;-70
2022/05/28 05:16:14;;;;;;;2.87;1.82;;;;;;;24.03;38.00;98539.78;1743622;81;20821;-67
2022/05/28 05:18:41;;;;;;;3.90;1.80;;;;;;;24.04;37.50;98544.92;1750099;81;21880;-72
2022/05/28 05:21:07;;;;;;;5.90;2.70;;;;;;;24.28;37.88;98545.91;1752578;79;20880;-70
2022/05/28 05:23:34;;;;;;;2.55;1.70;;;;;;;24.58;37.33;98537.54;1753432;81;21019;-69
2022/05/28 05:26:00;;;;;;;3.72;1.77;;;;;;;24.90;36.88;98533.51;1764639;79;21526;-69
2022/05/28 05:28:27;;;;;;;2.85;1.72;;;;;;;25.20;35.77;98534.61;1751699;79;20926;-72
2022/05/28 05:30:53;;;;;;;2.80;1.87;;;;;;;25.37;35.17;98530.09;1753331;79;21145;-70
2022/05/28 05:33:20;;;;;;;4.60;1.60;;;;;;;25.55;34.66;98536.18;1753515;81;20994;-70
2022/05/28 05:35:46;;;;;;;3.08;1.60;;;;;;;25.80;34.50;98544.04;1752448;81;21452;-70
2022/05/28 05:38:13;;;;;;;2.42;1.70;;;;;;;25.70;34.37;98535.45;1756159;80;21037;-69
2022/05/28 05:40:39;;;;;;;5.30;2.25;;;;;;;25.74;34.15;98540.56;1753460;81;20967;-72
2022/05/28 05:43:06;;;;;;;2.70;1.92;;;;;;;25.57;33.46;98543.50;1746738;81;21136;-74
2022/05/28 05:45:33;;;;;;;3.77;1.50;;;;;;;25.35;34.14;98534.44;1757720;81;21040;-73
2022/05/28 05:47:59;;;;;;;3.10;1.87;;;;;;;25.56;34.23;98533.70;1755254;81;20919;-71
2022/05/28 05:50:27;;;;;;;1.92;1.55;;;;;;;25.47;34.33;98528.07;1758362;81;21371;-71
2022/05/28 05:52:53;;;;;;;1.82;1.62;;;;;;;25.80;33.68;98533.14;1767523;81;20966;-71
2022/05/28 05:55:20;;;;;;;1.75;1.40;;;;;;;25.99;33.54;98531.27;1757262;81;21093;-70
2022/05/28 05:57:46;;;;;;;2.85;1.40;;;;;;;26.40;32.96;98538.90;1757423;81;20948;-72
2022/05/28 06:00:14;;;;;;;3.15;1.45;;;;;;;26.64;31.61;98528.72;1755032;81;20884;-71
2022/05/28 06:02:41;;;;;;;2.98;1.50;;;;;;;26.80;31.22;98521.36;1743162;81;21027;-72
2022/05/28 06:05:09;;;;;;;3.10;1.77;;;;;;;27.22;31.26;98527.77;1751992;81;21513;-70
2022/05/28 06:07:36;;;;;;;2.90;1.37;;;;;;;27.67;30.33;98520.06;1755767;81;21155;-73
2022/05/28 06:10:07;;;;;;;2.55;1.42;;;;;;;27.94;29.30;98524.16;1755381;79;20935;-72
2022/05/28 06:12:34;;;;;;;2.15;1.87;;;;;;;27.88;29.03;98524.00;1759616;79;20947;-69
2022/05/28 06:15:00;;;;;;;4.08;1.60;;;;;;;27.50;29.39;98516.59;1754029;81;21520;-71
2022/05/28 06:17:27;;;;;;;2.22;1.40;;;;;;;27.30;29.33;98512.02;1756365;81;20950;-72
2022/05/28 06:19:53;;;;;;;3.52;1.55;;;;;;;27.28;28.67;98526.53;1753454;79;21185;-70
2022/05/28 06:22:19;;;;;;;3.33;1.40;;;;;;;27.00;29.12;98527.05;1748382;81;21612;-72
2022/05/28 06:24:46;;;;;;;3.30;1.47;;;;;;;26.54;29.98;98530.24;1767717;81;21002;-70
2022/05/28 06:27:12;;;;;;;2.67;1.20;;;;;;;26.67;29.50;98529.49;1773093;79;21021;-71
2022/05/28 06:29:39;;;;;;;2.80;1.15;;;;;;;26.45;29.69;98530.09;1761267;79;21414;-72
2022/05/28 06:32:06;;;;;;;1.95;1.10;;;;;;;26.01;29.66;98528.24;1750877;80;22135;-70
2022/05/28 06:34:33;;;;;;;3.67;1.67;;;;;;;26.27;28.58;98526.27;1766141;81;20959;-70
2022/05/28 06:37:00;;;;;;;3.02;1.27;;;;;;;26.35;29.05;98531.61;1772699;81;20959;-70
2022/05/28 06:39:26;;;;;;;2.95;1.25;;;;;;;26.01;29.33;98530.97;1772755;81;21011;-70
2022/05/28 06:41:53;;;;;;;3.12;1.55;;;;;;;26.49;28.73;98532.47;1765443;79;21555;-73
2022/05/28 06:44:21;;;;;;;2.20;1.27;;;;;;;26.79;27.77;98527.13;1752936;81;21144;-72
2022/05/28 06:46:47;;;;;;;2.95;1.20;;;;;;;26.50;27.78;98523.20;1764965;81;22333;-71
2022/05/28 06:49:13;;;;;;;3.33;1.00;;;;;;;26.84;27.68;98518.86;1750424;81;21093;-69
2022/05/28 06:51:40;;;;;;;4.92;2.02;;;;;;;26.86;28.10;98530.28;1743171;81;21039;-70
2022/05/28 06:54:08;;;;;;;4.72;1.32;;;;;;;27.49;27.60;98513.59;1743171;81;20923;-71
2022/05/28 06:56:35;;;;;;;2.80;1.30;;;;;;;28.11;26.88;98508.50;1743093;81;21078;-71
2022/05/28 06:59:02;;;;;;;3.90;1.98;;;;;;;28.35;27.13;98508.23;1754137;81;21047;-71
2022/05/28 07:01:28;;;;;;;3.42;1.30;;;;;;;28.72;26.58;98506.00;1747337;81;21473;-71
2022/05/28 07:03:55;;;;;;;3.08;1.30;;;;;;;29.25;25.37;98497.00;1743310;81;20943;-69
2022/05/28 07:06:21;;;;;;;1.52;1.10;;;;;;;29.75;24.80;98499.66;1748351;81;21010;-70
2022/05/28 07:08:49;;;;;;;2.10;1.30;;;;;;;29.80;24.39;98513.25;1751771;81;21478;-68
2022/05/28 07:11:15;;;;;;;2.02;1.00;;;;;;;29.82;24.28;98501.98;1757199;79;20974;-69
2022/05/28 07:13:42;;;;;;;3.30;1.02;;;;;;;30.08;23.54;98516.55;1743802;81;21014;-70
2022/05/28 07:16:11;;;;;;;2.22;1.10;;;;;;;29.48;23.40;98514.17;1751371;80;20931;-70
2022/05/28 07:18:40;;;;;;;3.15;1.00;;;;;;;29.48;23.68;98508.13;1759687;80;20876;-71
2022/05/28 07:21:07;;;;;;;2.17;0.80;;;;;;;29.62;24.03;98508.03;1759614;80;22035;-71
2022/05/28 07:23:34;;;;;;;1.55;0.85;;;;;;;29.90;23.00;98510.80;1759594;80;20887;-72
2022/05/28 07:26:11;;;;;;;2.58;1.77;;;;;;;29.96;22.44;98504.83;1759678;80;20919;-70
2022/05/28 07:28:38;;;;;;;2.72;1.82;;;;;;;29.56;22.69;98501.06;1781925;80;20883;-70
2022/05/28 07:31:08;;;;;;;2.30;1.27;;;;;;;29.61;22.55;98498.18;1789589;79;20922;-70
2022/05/28 07:33:37;;;;;;;1.70;1.10;;;;;;;29.31;22.42;98499.83;1789453;79;21150;-71
2022/05/28 07:36:07;;;;;;;3.02;0.93;;;;;;;29.68;21.97;98498.52;1789651;79;21469;-70
2022/05/28 07:38:34;;;;;;;2.52;0.90;;;;;;;30.11;21.98;98503.58;1789949;79;20938;-72
2022/05/28 07:41:09;;;;;;;1.32;0.80;;;;;;;30.62;21.34;98499.24;1789815;79;21477;-71
2022/05/28 07:43:35;;;;;;;3.87;0.80;;;;;;;31.02;21.04;98497.92;1789711;80;20982;-70
2022/05/28 07:46:03;;;;;;;1.57;0.78;;;;;;;31.75;20.77;98504.94;1789586;80;21536;-70
2022/05/28 07:48:29;;;;;;;1.60;0.60;;;;;;;32.52;19.99;98500.32;1789438;79;20910;-70
2022/05/28 07:50:56;;;;;;;2.55;0.60;;;;;;;32.57;19.21;98506.99;1790012;80;20999;-69
2022/05/28 07:53:22;;;;;;;1.02;0.80;;;;;;;32.61;19.40;98510.70;1789561;80;21541;-70
2022/05/28 07:55:49;;;;;;;1.47;0.75;;;;;;;32.38;19.66;98502.53;1789734;79;20987;-71
2022/05/28 07:58:16;;;;;;;4.47;0.70;;;;;;;31.30;19.53;98513.42;1789586;80;21274;-70
2022/05/28 08:00:45;;;;;;;2.72;0.88;;;;;;;30.73;19.85;98519.74;1789536;80;20958;-70
2022/05/28 08:03:13;;;;;;;1.52;0.93;;;;;;;30.38;20.18;98506.03;1789615;79;20902;-70
2022/05/28 08:05:45;;;;;;;2.65;1.10;;;;;;;29.40;21.04;98517.67;1789618;79;20989;-70
2022/05/28 08:08:12;;;;;;;3.15;0.88;;;;;;;29.76;21.10;98510.07;1789665;80;20930;-69
2022/05/28 08:10:39;;;;;;;3.20;0.88;;;;;;;30.08;21.76;98507.52;1789582;80;21278;-71
2022/05/28 08:13:09;;;;;;;3.67;0.98;;;;;;;29.83;21.35;98503.58;1789590;80;20875;-70
2022/05/28 08:15:36;;;;;;;5.05;4.60;;;;;;;29.74;21.62;98505.47;1787682;80;20962;-70
2022/05/28 08:18:06;;;;;;;3.87;2.00;;;;;;;29.89;21.51;98505.87;1772988;81;21403;-71
2022/05/28 08:23:18;;;;;;;0.95;0.72;;;;;;;30.80;20.63;98504.39;1773391;81;21261;-70
2022/05/28 08:25:46;;;;;;;2.20;1.30;;;;;;;31.23;19.86;98488.41;1773129;79;21450;-70
2022/05/28 08:28:14;;;;;;;2.85;0.95;;;;;;;31.99;19.70;98493.31;1773044;81;20919;-70
2022/05/28 08:30:41;;;;;;;2.17;1.10;;;;;;;33.09;18.89;98483.09;1773006;79;21430;-69
2022/05/28 08:33:10;;;;;;;4.87;1.05;;;;;;;34.11;17.63;98490.63;1772998;81;20868;-69
2022/05/28 08:35:37;;;;;;;3.27;0.95;;;;;;;34.73;17.33;98492.87;1773140;81;21317;-70
2022/05/28 08:38:06;;;;;;;2.47;1.20;;;;;;;35.30;16.65;98480.05;1773030;81;20924;-70
2022/05/28 08:40:36;;;;;;;2.77;0.78;;;;;;;35.71;16.01;98481.47;1773175;81;20975;-69
2022/05/28 08:43:02;;;;;;;2.95;0.85;;;;;;;35.08;16.16;98487.55;1773075;79;21035;-71
2022/05/28 08:45:32;;;;;;;2.27;1.50;;;;;;;34.62;16.50;98475.22;1773107;81;21437;-68
2022/05/28 08:48:00;;;;;;;2.05;1.35;;;;;;;33.93;16.51;98479.59;1772997;81;21251;-71
2022/05/28 08:50:28;;;;;;;3.72;1.50;;;;;;;32.27;17.51;98491.12;1772987;81;20948;-71
2022/05/28 08:53:05;;;;;;;4.30;2.33;;;;;;;32.20;18.30;98495.55;1773130;81;20917;-70
2022/05/28 08:55:35;;;;;;;3.80;3.50;;;;;;;31.46;19.43;98491.98;1763658;81;20928;-70
2022/05/28 08:58:13;;;;;;;4.83;1.98;;;;;;;31.34;19.91;98500.66;1743775;81;20998;-70
2022/05/28 09:00:48;;;;;;;4.87;1.75;;;;;;;31.10;19.89;98497.10;1743581;81;21790;-71
2022/05/28 09:03:22;;;;;;;8.53;1.17;;;;;;;32.42;18.35;98492.44;1743583;81;21026;-71
2022/05/28 09:06:07;;;;;;;1.07;0.70;;;;;;;33.29;17.46;98488.55;1743963;81;21539;-69
2022/05/28 09:08:46;;;;;;;4.20;1.85;;;;;;;34.00;17.17;98482.00;1742998;81;20939;-69
2022/05/28 09:11:33;;;;;;;3.33;1.30;;;;;;;34.62;16.88;98489.03;1764376;81;20967;-71
2022/05/28 09:14:11;;;;;;;2.70;0.88;;;;;;;35.24;15.15;98487.80;1773153;81;21146;-71
2022/05/28 09:16:38;;;;;;;2.05;0.80;;;;;;;32.22;18.02;98487.76;1762081;79;20923;-69
2022/05/28 09:19:12;;;;;;;2.12;1.20;;;;;;;30.71;18.89;98498.68;1786996;80;20974;-69
2022/05/28 09:21:40;;;;;;;4.00;1.17;;;;;;;29.46;20.15;98499.98;1787279;80;21417;-69
2022/05/28 09:24:22;;;;;;;2.85;0.90;;;;;;;28.35;21.47;98492.64;1787107;79;20855;-71
2022/05/28 09:27:22;;;;;;;2.40;0.60;;;;;;;27.34;22.11;98492.02;1778321;80;22363;-68
2022/05/28 09:30:11;;;;;;;1.47;0.98;;;;;;;27.38;21.53;98479.37;1787032;80;20962;-70
2022/05/28 09:32:55;;;;;;;2.40;1.20;;;;;;;25.85;23.18;98495.48;1757202;80;20880;-70
2022/05/28 09:35:43;;;;;;;4.10;0.80;;;;;;;24.94;24.92;98494.59;1757502;80;20943;-70
2022/05/28 09:38:50;;;;;;;6.25;1.30;;;;;;;24.29;25.49;98499.99;1757377;80;20965;-70
2022/05/28 09:41:45;;;;;;;1.72;1.02;;;;;;;23.62;25.92;98497.86;1784563;80;21257;-70
2022/05/28 09:44:20;;;;;;;2.80;1.15;;;;;;;23.05;26.97;98493.39;1787027;80;20962;-69
2022/05/28 09:46:47;;;;;;;2.50;1.27;;;;;;;22.62;27.58;98492.91;1787099;79;21005;-70
2022/05/28 09:49:23;;;;;;;1.25;0.60;;;;;;;22.48;28.08;98500.45;1787044;80;20911;-70
2022/05/28 09:52:06;;;;;;;2.62;1.17;;;;;;;22.40;28.51;98505.05;1787240;79;20887;-70
2022/05/28 09:54:33;;;;;;;2.70;0.90;;;;;;;21.85;29.33;98498.41;1787148;80;21142;-69
2022/05/28 09:57:09;;;;;;;1.42;0.72;;;;;;;21.33;30.01;98504.41;1787266;79;21414;-69
2022/05/28 09:59:49;;;;;;;3.37;0.90;;;;;;;20.74;31.05;98511.32;1778012;80;20974;-70
2022/05/28 10:02:41;;;;;;;4.17;1.17;;;;;;;20.74;31.05;98511.32;1787319;80;20911;-70
2022/05/28 10:05:14;;;;;;;1.20;0.65;;;;;;;20.45;31.61;98515.39;1787377;79;20967;-70
2022/05/28 10:07:47;;;;;;;2.37;1.45;;;;;;;20.00;32.55;98494.13;1787175;80;21074;-70
2022/05/28 10:10:30;;;;;;;3.92;1.40;;;;;;;19.76;33.48;98498.73;1757614;80;20962;-72
2022/05/28 10:13:12;;;;;;;2.05;1.10;;;;;;;19.57;33.71;98501.75;1780409;80;20875;-69
2022/05/28 10:15:57;;;;;;;1.62;1.10;;;;;;;19.35;33.95;98506.80;1787192;80;20931;-69
2022/05/28 10:18:56;;;;;;;2.62;0.90;;;;;;;19.09;34.54;98529.91;1787454;79;20927;-68
2022/05/28 10:21:33;;;;;;;1.47;0.98;;;;;;;18.72;35.10;98520.17;1783511;80;21214;-70
2022/05/28 10:24:03;;;;;;;1.72;0.80;;;;;;;18.32;36.53;98528.39;1786780;80;20919;-70
2022/05/28 10:26:37;;;;;;;0.75;0.50;;;;;;;18.04;37.80;98513.58;1777029;79;21479;-71
2022/05/28 10:29:29;;;;;;;0.90;0.60;;;;;;;17.88;38.39;98510.34;1787504;80;20958;-69
2022/05/28 10:31:57;;;;;;;0.80;0.50;;;;;;;17.87;38.48;98498.76;1781449;80;20915;-70
2022/05/28 10:34:33;;;;;;;1.87;0.60;;;;;;;17.92;38.94;98499.89;1787216;80;21847;-70
2022/05/28 10:37:13;;;;;;;1.05;0.90;;;;;;;18.11;38.82;98487.36;1787142;79;21370;-69
2022/05/28 10:39:40;;;;;;;3.35;0.90;;;;;;;18.29;38.56;98475.02;1787243;80;20907;-70
2022/05/28 10:42:10;;;;;;;2.35;0.85;;;;;;;18.52;37.84;98480.80;1787268;79;21456;-69
2022/05/28 10:44:38;;;;;;;1.82;0.82;;;;;;;18.66;37.81;98475.39;1787274;79;21536;-70
2022/05/28 10:47:29;;;;;;;1.62;0.85;;;;;;;18.77;37.30;98475.80;1787212;80;21221;-70
2022/05/28 10:50:16;;;;;;;2.35;1.22;;;;;;;18.76;37.90;98472.02;1787212;79;21001;-70
2022/05/28 10:52:52;;;;;;;1.95;1.07;;;;;;;18.89;38.13;98471.67;1787102;79;21003;-71
2022/05/28 10:55:50;;;;;;;3.75;1.10;;;;;;;19.09;38.23;98467.91;1785357;80;20966;-71
2022/05/28 10:58:25;;;;;;;3.75;1.25;;;;;;;19.24;38.00;98467.31;1786525;80;20923;-71
2022/05/28 11:01:06;;;;;;;5.83;1.40;;;;;;;19.37;37.99;98469.64;1783107;80;21126;-70
2022/05/28 11:03:50;;;;;;;3.37;1.02;;;;;;;19.37;37.68;98461.02;1767749;80;21548;-71
2022/05/28 11:06:36;;;;;;;1.40;0.93;;;;;;;19.45;37.93;98462.49;1786848;80;20903;-70
2022/05/28 11:09:22;;;;;;;2.75;1.20;;;;;;;19.46;37.76;98462.76;1772370;79;21134;-70
2022/05/28 11:12:12;;;;;;;2.42;1.05;;;;;;;19.45;37.45;98451.70;1767656;80;20946;-68
2022/05/28 11:15:17;;;;;;;2.10;0.85;;;;;;;19.59;37.77;98452.94;1781655;80;21262;-69
2022/05/28 11:18:17;;;;;;;3.35;1.50;;;;;;;19.75;36.97;98453.91;1787004;79;20978;-71
2022/05/28 11:21:04;;;;;;;2.45;1.40;;;;;;;19.89;36.33;98441.66;1786642;80;20856;-71
2022/05/28 11:23:58;;;;;;;2.92;0.90;;;;;;;20.06;36.05;98443.17;1787191;80;20872;-69
2022/05/28 11:26:46;;;;;;;2.20;1.10;;;;;;;20.19;35.90;98439.23;1787351;79;21536;-72
2022/05/28 11:29:43;;;;;;;3.05;0.90;;;;;;;20.35;35.94;98445.08;1787120;80;21165;-70
2022/05/28 11:32:14;;;;;;;2.40;0.98;;;;;;;20.48;36.10;98447.88;1787130;80;20903;-70
2022/05/28 11:34:51;;;;;;;3.35;0.90;;;;;;;20.57;35.58;98434.19;1787269;80;20860;-69
2022/05/28 11:37:29;;;;;;;2.37;0.72;;;;;;;20.64;33.99;98422.61;1787438;80;21040;-70
2022/05/28 11:40:01;;;;;;;3.52;0.90;;;;;;;20.64;33.33;98436.12;1787333;79;21034;-70
2022/05/28 11:42:57;;;;;;;1.40;1.17;;;;;;;20.66;32.50;98421.27;1787122;80;21898;-69
2022/05/28 11:46:02;;;;;;;2.27;1.47;;;;;;;20.67;32.57;98432.91;1787351;80;20974;-70
2022/05/28 11:52:17;;;;;;;1.65;0.70;;;;;;;20.65;32.87;98443.95;1787200;79;20974;-70
2022/05/28 11:55:16;;;;;;;1.60;0.70;;;;;;;20.30;33.63;98479.63;1779140;80;20919;-70
2022/05/28 11:58:11;;;;;;;1.98;0.70;;;;;;;19.93;40.27;98491.35;1787053;79;21135;-71
2022/05/28 12:00:39;;;;;;;1.95;0.65;;;;;;;19.45;38.81;98515.09;1787023;80;20911;-70
2022/05/28 12:03:20;;;;;;;0.95;0.40;;;;;;;19.03;40.32;98535.75;1783205;79;20962;-71